createdAt,value
2023-03-21T00:00:12.894Z,8.07
2023-03-21T00:02:40.770Z,8.93
2023-03-21T00:05:15.778Z,9.33
2023-03-21T00:07:44.125Z,8.63
2023-03-21T00:10:18.059Z,10.10
2023-03-21T00:12:55.355Z,9.17
2023-03-21T00:15:30.584Z,9.97
2023-03-21T00:18:11.366Z,8.30
2023-03-21T00:20:40.640Z,8.83
2023-03-21T00:23:08.538Z,11.07
2023-03-21T00:25:36.510Z,10.57
2023-03-21T00:28:08.469Z,9.40
2023-03-21T00:30:36.958Z,7.97
2023-03-21T00:33:19.645Z,8.90
2023-03-21T00:36:06.109Z,9.13
2023-03-21T00:38:35.249Z,8.43
2023-03-21T00:41:18.816Z,9.97
2023-03-21T00:43:55.396Z,8.53
2023-03-21T00:46:25.308Z,7.63
2023-03-21T00:48:55.909Z,7.90
2023-03-21T00:51:27.020Z,9.10
2023-03-21T00:53:56.177Z,10.67
2023-03-21T00:56:27.374Z,9.50
2023-03-21T00:58:55.218Z,8.80
2023-03-21T01:01:23.054Z,9.73
2023-03-21T01:04:04.134Z,7.83
2023-03-21T01:06:34.061Z,10.90
2023-03-21T01:09:01.915Z,10.73
2023-03-21T01:11:30.569Z,9.73
2023-03-21T01:14:14.578Z,10.57
2023-03-21T01:16:46.912Z,11.27
2023-03-21T01:19:24.957Z,10.77
2023-03-21T01:21:56.238Z,11.83
2023-03-21T01:24:25.731Z,10.43
2023-03-21T01:26:53.734Z,11.40
2023-03-21T01:29:21.750Z,12.10
2023-03-21T01:31:49.805Z,13.47
2023-03-21T01:34:17.806Z,13.80
2023-03-21T01:36:46.144Z,14.60
2023-03-21T01:39:20.066Z,17.67
2023-03-21T01:41:50.268Z,17.57
2023-03-21T01:44:21.289Z,15.17
2023-03-21T01:47:07.737Z,16.00
2023-03-21T01:49:40.162Z,15.70
2023-03-21T01:52:33.548Z,39.57
2023-03-21T01:55:06.893Z,15.97
2023-03-21T01:57:55.234Z,19.40
2023-03-21T02:00:31.997Z,17.33
2023-03-21T02:03:26.228Z,31.47
2023-03-21T02:06:13.663Z,20.83
2023-03-21T02:08:44.354Z,21.60
2023-03-21T02:11:17.602Z,20.27
2023-03-21T02:13:45.777Z,19.80
2023-03-21T02:16:21.779Z,20.10
2023-03-21T02:18:56.918Z,23.63
2023-03-21T02:22:06.582Z,23.13
2023-03-21T02:25:22.066Z,24.23
2023-03-21T02:27:56.066Z,25.83
2023-03-21T02:30:52.406Z,25.27
2023-03-21T02:33:42.346Z,23.00
2023-03-21T02:36:19.359Z,23.07
2023-03-21T02:38:56.097Z,25.00
2023-03-21T02:41:39.510Z,23.93
2023-03-21T02:44:11.122Z,22.77
2023-03-21T02:46:51.252Z,24.73
2023-03-21T02:49:30.892Z,25.17
2023-03-21T02:52:05.477Z,26.17
2023-03-21T02:54:48.370Z,23.90
2023-03-21T02:57:20.770Z,27.17
2023-03-21T02:59:56.981Z,25.33
2023-03-21T03:02:33.137Z,26.30
2023-03-21T03:05:02.891Z,28.40
2023-03-21T03:07:41.423Z,24.93
2023-03-21T03:10:22.718Z,25.83
2023-03-21T03:13:00.477Z,24.67
2023-03-21T03:15:38.524Z,29.57
2023-03-21T03:18:12.800Z,28.00
2023-03-21T03:20:47.928Z,24.63
2023-03-21T03:23:22.245Z,27.03
2023-03-21T03:25:54.235Z,25.77
2023-03-21T03:28:24.726Z,33.80
2023-03-21T03:31:08.025Z,29.70
2023-03-21T03:33:45.350Z,36.67
2023-03-21T03:36:30.053Z,26.03
2023-03-21T03:39:00.851Z,26.37
2023-03-21T03:41:50.255Z,26.77
2023-03-21T03:44:18.875Z,27.53
2023-03-21T03:46:57.983Z,25.93
2023-03-21T03:49:27.514Z,27.23
2023-03-21T03:51:59.430Z,28.63
2023-03-21T03:54:34.704Z,28.40
2023-03-21T03:57:05.944Z,27.97
2023-03-21T03:59:35.324Z,27.33
2023-03-21T04:02:18.270Z,30.80
2023-03-21T04:04:46.226Z,27.97
2023-03-21T04:07:15.976Z,29.70
2023-03-21T04:09:45.418Z,30.27
2023-03-21T04:12:18.690Z,30.53
2023-03-21T04:15:11.530Z,32.03
2023-03-21T04:17:45.371Z,28.53
2023-03-21T04:20:23.506Z,29.13
2023-03-21T04:22:58.219Z,28.23
2023-03-21T04:25:33.935Z,29.20
2023-03-21T04:28:05.579Z,27.70
2023-03-21T04:30:43.416Z,26.33
2023-03-21T04:33:20.892Z,27.27
2023-03-21T04:35:56.395Z,30.67
2023-03-21T04:38:30.691Z,28.00
2023-03-21T04:41:02.080Z,27.63
2023-03-21T04:43:32.656Z,29.27
2023-03-21T04:46:00.712Z,28.33
2023-03-21T04:48:28.757Z,25.90
2023-03-21T04:50:57.526Z,27.47
2023-03-21T04:53:25.424Z,27.83
2023-03-21T04:55:55.452Z,27.63
2023-03-21T04:58:24.107Z,28.93
2023-03-21T05:00:53.485Z,26.40
2023-03-21T05:03:21.972Z,28.97
2023-03-21T05:05:50.558Z,30.13
2023-03-21T05:08:19.985Z,25.77
2023-03-21T05:10:48.242Z,28.20
2023-03-21T05:13:16.136Z,28.87
2023-03-21T05:15:44.126Z,29.23
2023-03-21T05:18:13.391Z,25.60
2023-03-21T05:20:58.384Z,27.20
2023-03-21T05:23:31.714Z,33.23
2023-03-21T05:25:59.855Z,26.40
2023-03-21T05:28:47.964Z,28.33
2023-03-21T05:31:16.749Z,29.47
2023-03-21T05:33:48.003Z,27.17
2023-03-21T05:36:19.406Z,29.43
2023-03-21T05:38:47.376Z,28.63
2023-03-21T05:41:19.255Z,27.27
2023-03-21T05:43:47.883Z,28.07
2023-03-21T05:46:17.090Z,29.33
2023-03-21T05:48:47.437Z,34.47
2023-03-21T05:51:17.788Z,27.27
2023-03-21T05:53:47.463Z,30.83
2023-03-21T05:56:17.047Z,32.03
2023-03-21T05:58:54.890Z,31.40
2023-03-21T06:01:24.191Z,30.60
2023-03-21T06:04:01.132Z,30.77
2023-03-21T06:06:30.692Z,31.57
2023-03-21T06:09:01.315Z,28.77
2023-03-21T06:11:32.299Z,31.67
2023-03-21T06:14:18.781Z,30.87
2023-03-21T06:16:53.885Z,28.27
2023-03-21T06:19:23.578Z,25.97
2023-03-21T06:22:06.120Z,27.57
2023-03-21T06:24:36.617Z,27.27
2023-03-21T06:27:04.660Z,29.03
2023-03-21T06:29:47.840Z,32.50
2023-03-21T06:32:16.125Z,32.00
2023-03-21T06:34:47.248Z,29.63
2023-03-21T06:37:16.863Z,31.03
2023-03-21T06:39:44.845Z,28.37
2023-03-21T06:42:12.961Z,28.93
2023-03-21T06:44:41.371Z,30.63
2023-03-21T06:47:13.983Z,29.80
2023-03-21T06:49:44.619Z,31.23
2023-03-21T06:52:15.334Z,31.73
2023-03-21T06:54:44.240Z,32.60
2023-03-21T06:57:13.519Z,31.33
2023-03-21T06:59:42.506Z,35.73
2023-03-21T07:02:15.145Z,32.37
2023-03-21T07:04:49.305Z,28.00
2023-03-21T07:07:25.947Z,31.63
2023-03-21T07:09:53.828Z,29.73
2023-03-21T07:12:23.047Z,30.07
2023-03-21T07:15:11.872Z,30.50
2023-03-21T07:17:41.425Z,33.33
2023-03-21T07:20:12.636Z,31.10
2023-03-21T07:22:42.367Z,32.50
2023-03-21T07:25:11.539Z,32.77
2023-03-21T07:27:41.566Z,33.53
2023-03-21T07:30:10.956Z,40.17
2023-03-21T07:32:41.284Z,38.10
2023-03-21T07:35:12.516Z,40.77
2023-03-21T07:37:41.762Z,39.67
2023-03-21T07:40:12.423Z,37.63
2023-03-21T07:42:41.602Z,37.90
2023-03-21T07:45:15.565Z,37.43
2023-03-21T07:47:44.009Z,49.07
2023-03-21T07:50:12.209Z,42.20
2023-03-21T07:52:40.092Z,46.80
2023-03-21T07:55:10.392Z,38.67
2023-03-21T07:57:38.214Z,37.77
2023-03-21T08:00:07.480Z,38.00
2023-03-21T08:02:41.162Z,59.53
2023-03-21T08:05:11.446Z,81.63
2023-03-21T08:07:39.400Z,40.60
2023-03-21T08:10:11.543Z,35.57
2023-03-21T08:12:39.696Z,35.47
2023-03-21T08:15:08.914Z,33.30
2023-03-21T08:17:38.055Z,35.47
2023-03-21T08:20:08.968Z,34.77
2023-03-21T08:22:37.227Z,37.83
2023-03-21T08:25:07.978Z,34.17
2023-03-21T08:27:37.189Z,33.67
2023-03-21T08:30:05.807Z,34.13
2023-03-21T08:32:33.865Z,33.43
2023-03-21T08:35:02.618Z,33.60
2023-03-21T08:37:31.067Z,33.87
2023-03-21T08:39:59.171Z,31.97
2023-03-21T08:42:27.153Z,30.70
2023-03-21T08:44:56.325Z,34.23
2023-03-21T08:47:24.205Z,35.90
2023-03-21T08:49:52.091Z,33.77
2023-03-21T08:52:19.920Z,34.13
2023-03-21T08:54:48.501Z,30.50
2023-03-21T08:57:16.928Z,30.60
2023-03-21T08:59:44.860Z,29.20
2023-03-21T09:02:15.068Z,27.67
2023-03-21T09:04:43.615Z,29.30
2023-03-21T09:07:12.436Z,29.50
2023-03-21T09:09:41.246Z,32.33
2023-03-21T09:12:09.658Z,28.10
2023-03-21T09:14:37.598Z,27.93
2023-03-21T09:17:05.542Z,25.90
2023-03-21T09:19:35.087Z,59.27
2023-03-21T09:22:03.724Z,29.10
2023-03-21T09:24:32.085Z,29.47
2023-03-21T09:27:00.953Z,29.70
2023-03-21T09:29:29.126Z,27.80
2023-03-21T09:31:57.739Z,26.47
2023-03-21T09:34:26.450Z,26.10
2023-03-21T09:36:56.548Z,28.17
2023-03-21T09:39:24.765Z,25.80
2023-03-21T09:42:06.360Z,26.00
2023-03-21T09:44:45.155Z,28.53
2023-03-21T09:47:20.606Z,59.50
2023-03-21T09:49:51.851Z,29.73
2023-03-21T09:52:25.528Z,28.50
2023-03-21T09:54:53.810Z,26.20
2023-03-21T09:57:28.599Z,28.83
2023-03-21T09:59:57.595Z,28.17
2023-03-21T10:02:38.246Z,28.13
2023-03-21T10:05:14.330Z,30.40
2023-03-21T10:07:48.736Z,26.43
2023-03-21T10:10:18.805Z,26.27
2023-03-21T10:12:47.456Z,26.30
2023-03-21T10:15:20.944Z,25.53
2023-03-21T10:17:53.646Z,26.13
2023-03-21T10:20:24.146Z,28.00
2023-03-21T10:22:54.823Z,26.80
2023-03-21T10:25:27.779Z,29.37
2023-03-21T10:27:55.657Z,31.40
2023-03-21T10:30:30.935Z,27.13
2023-03-21T10:33:02.421Z,33.57
2023-03-21T10:35:32.617Z,37.70
2023-03-21T10:38:02.391Z,40.67
2023-03-21T10:40:30.483Z,28.77
2023-03-21T10:43:01.036Z,27.47
2023-03-21T10:45:29.167Z,28.03
2023-03-21T10:47:58.132Z,27.93
2023-03-21T10:50:30.637Z,27.27
2023-03-21T10:53:02.281Z,25.53
2023-03-21T10:55:31.978Z,23.97
2023-03-21T10:58:02.934Z,23.37
2023-03-21T11:00:35.369Z,27.07
2023-03-21T11:03:03.907Z,23.33
2023-03-21T11:05:36.916Z,25.40
2023-03-21T11:08:08.000Z,22.47
2023-03-21T11:10:51.310Z,22.83
2023-03-21T11:13:21.166Z,21.90
2023-03-21T11:15:54.994Z,26.47
2023-03-21T11:18:24.769Z,24.20
2023-03-21T11:20:54.631Z,23.60
2023-03-21T11:23:27.395Z,22.60
2023-03-21T11:25:55.780Z,21.73
2023-03-21T11:28:25.786Z,22.03
2023-03-21T11:30:55.509Z,21.03
2023-03-21T11:33:24.750Z,22.47
2023-03-21T11:36:00.906Z,23.53
2023-03-21T11:38:32.334Z,19.93
2023-03-21T11:41:02.315Z,21.53
2023-03-21T11:43:32.925Z,28.80
2023-03-21T11:46:06.702Z,21.77
2023-03-21T11:48:39.413Z,20.27
2023-03-21T11:51:14.046Z,21.00
2023-03-21T11:53:47.481Z,21.80
2023-03-21T11:56:24.420Z,22.80
2023-03-21T11:59:03.571Z,24.00
2023-03-21T12:01:39.194Z,19.33
2023-03-21T12:04:22.202Z,18.67
2023-03-21T12:06:55.248Z,20.40
2023-03-21T12:09:35.897Z,18.10
2023-03-21T12:12:32.961Z,18.57
2023-03-21T12:15:12.502Z,19.00
2023-03-21T12:17:47.863Z,18.23
2023-03-21T12:20:24.745Z,22.57
2023-03-21T12:23:01.019Z,18.90
2023-03-21T12:25:33.956Z,18.30
2023-03-21T12:28:08.630Z,18.27
2023-03-21T12:30:46.242Z,17.47
2023-03-21T12:33:21.895Z,18.60
2023-03-21T12:35:56.265Z,18.17
2023-03-21T12:38:27.080Z,17.87
2023-03-21T12:41:18.472Z,20.93
2023-03-21T12:43:48.754Z,18.90
2023-03-21T12:46:20.870Z,19.07
2023-03-21T12:48:51.400Z,18.23
2023-03-21T12:51:20.933Z,17.60
2023-03-21T12:54:12.224Z,17.30
2023-03-21T12:56:48.297Z,17.77
2023-03-21T12:59:24.025Z,20.07
2023-03-21T13:01:53.012Z,19.73
2023-03-21T13:04:42.465Z,18.30
2023-03-21T13:07:13.994Z,17.73
2023-03-21T13:09:42.792Z,18.33
2023-03-21T13:12:22.996Z,17.37
2023-03-21T13:15:04.621Z,19.17
2023-03-21T13:17:37.104Z,19.40
2023-03-21T13:20:11.847Z,16.37
2023-03-21T13:22:39.671Z,15.77
2023-03-21T13:25:16.795Z,14.87
2023-03-21T13:27:52.819Z,14.70
2023-03-21T13:30:22.925Z,14.33
2023-03-21T13:32:51.833Z,13.90
2023-03-21T13:35:27.195Z,13.10
2023-03-21T13:37:58.343Z,13.37
2023-03-21T13:40:28.135Z,13.40
2023-03-21T13:43:00.145Z,16.77
2023-03-21T13:45:30.663Z,12.53
2023-03-21T13:47:59.678Z,11.80
2023-03-21T13:50:35.246Z,13.30
2023-03-21T13:53:20.545Z,13.17
2023-03-21T13:55:59.611Z,11.57
2023-03-21T13:58:35.590Z,11.17
2023-03-21T14:01:16.730Z,13.07
2023-03-21T14:03:46.000Z,13.57
2023-03-21T14:06:14.223Z,10.50
2023-03-21T14:08:45.053Z,34.50
2023-03-21T14:11:15.571Z,12.63
2023-03-21T14:13:51.191Z,18.17
2023-03-21T14:16:20.350Z,12.13
2023-03-21T14:18:55.001Z,12.77
2023-03-21T14:21:25.869Z,13.03
2023-03-21T14:24:00.722Z,10.87
2023-03-21T14:26:31.127Z,11.77
2023-03-21T14:29:00.849Z,11.13
2023-03-21T14:31:28.982Z,11.27
2023-03-21T14:33:58.998Z,11.50
2023-03-21T14:36:29.164Z,11.50
2023-03-21T14:39:00.682Z,10.63
2023-03-21T14:41:30.107Z,11.53
2023-03-21T14:44:22.245Z,10.60
2023-03-21T14:46:50.389Z,11.77
2023-03-21T14:49:25.670Z,12.77
2023-03-21T14:51:55.389Z,10.43
2023-03-21T14:54:23.555Z,10.87
2023-03-21T14:56:54.391Z,10.40
2023-03-21T14:59:27.339Z,10.20
2023-03-21T15:01:55.887Z,10.33
2023-03-21T15:04:23.937Z,10.40
2023-03-21T15:06:54.432Z,9.17
2023-03-21T15:09:24.983Z,11.93
2023-03-21T15:11:54.023Z,10.10
2023-03-21T15:14:27.347Z,9.63
2023-03-21T15:16:55.622Z,9.77
2023-03-21T15:19:28.616Z,8.83
2023-03-21T15:21:59.585Z,9.77
2023-03-21T15:24:30.240Z,9.40
2023-03-21T15:27:01.251Z,9.27
2023-03-21T15:29:30.782Z,10.33
2023-03-21T15:31:59.533Z,9.37
2023-03-21T15:34:30.586Z,8.90
2023-03-21T15:37:00.126Z,10.87
2023-03-21T15:39:29.832Z,12.67
2023-03-21T15:42:02.472Z,15.13
2023-03-21T15:44:32.750Z,8.67
2023-03-21T15:47:00.921Z,9.73
2023-03-21T15:49:31.200Z,12.00
2023-03-21T15:52:07.476Z,10.40
2023-03-21T15:54:39.905Z,8.83
2023-03-21T15:57:20.523Z,12.07
2023-03-21T15:59:50.331Z,13.53
2023-03-21T16:02:20.702Z,12.53
2023-03-21T16:04:59.975Z,14.77
2023-03-21T16:07:28.221Z,9.80
2023-03-21T16:10:00.668Z,12.63
2023-03-21T16:12:28.624Z,36.83
2023-03-21T16:14:57.844Z,16.27
2023-03-21T16:17:29.822Z,19.13
2023-03-21T16:19:57.837Z,13.20
2023-03-21T16:22:25.745Z,13.40
2023-03-21T16:24:53.970Z,17.33
2023-03-21T16:27:22.027Z,14.67
2023-03-21T16:29:50.062Z,12.47
2023-03-21T16:32:20.519Z,11.97
2023-03-21T16:34:48.425Z,13.57
2023-03-21T16:37:16.730Z,19.80
2023-03-21T16:39:44.592Z,14.50
2023-03-21T16:42:13.083Z,11.17
2023-03-21T16:44:41.008Z,16.00
2023-03-21T16:47:15.534Z,11.63
2023-03-21T16:49:44.943Z,11.30
2023-03-21T16:52:13.994Z,11.30
2023-03-21T16:54:42.460Z,18.93
2023-03-21T16:57:21.221Z,17.17
2023-03-21T16:59:49.067Z,21.87
2023-03-21T17:02:17.393Z,17.10
2023-03-21T17:04:46.718Z,14.57
2023-03-21T17:07:15.383Z,15.23
2023-03-21T17:09:43.912Z,15.43
2023-03-21T17:12:13.640Z,16.07
2023-03-21T17:14:41.898Z,16.80
2023-03-21T17:17:12.667Z,16.43
2023-03-21T17:19:40.864Z,16.33
2023-03-21T17:22:12.561Z,22.63
2023-03-21T17:24:41.885Z,21.07
2023-03-21T17:27:12.837Z,16.67
2023-03-21T17:29:40.895Z,17.90
2023-03-21T17:32:09.198Z,17.43
2023-03-21T17:34:37.066Z,15.80
2023-03-21T17:37:04.917Z,17.90
2023-03-21T17:39:34.144Z,18.00
2023-03-21T17:42:02.362Z,17.93
2023-03-21T17:44:30.219Z,17.30
2023-03-21T17:46:58.119Z,18.37
2023-03-21T17:49:26.466Z,18.53
2023-03-21T17:51:54.326Z,18.70
2023-03-21T17:54:22.209Z,18.13
2023-03-21T17:56:52.780Z,18.10
2023-03-21T17:59:20.671Z,19.30
2023-03-21T18:01:48.659Z,19.13
2023-03-21T18:04:16.670Z,21.00
2023-03-21T18:06:44.876Z,20.83
2023-03-21T18:09:13.212Z,19.23
2023-03-21T18:11:41.757Z,20.83
2023-03-21T18:14:17.647Z,20.20
2023-03-21T18:16:46.400Z,22.60
2023-03-21T18:19:14.484Z,20.67
2023-03-21T18:21:44.662Z,21.50
2023-03-21T18:24:13.110Z,20.53
2023-03-21T18:26:41.482Z,21.50
2023-03-21T18:32:06.256Z,21.60
2023-03-21T18:34:36.443Z,21.47
2023-03-21T18:37:04.714Z,22.70
2023-03-21T18:39:32.985Z,22.40
2023-03-21T18:42:02.575Z,22.47
2023-03-21T18:44:37.271Z,21.53
2023-03-21T18:47:06.623Z,21.73
2023-03-21T18:52:22.720Z,21.53
2023-03-21T18:54:50.674Z,22.97
2023-03-21T18:57:37.442Z,21.90
2023-03-21T19:00:13.262Z,22.33
2023-03-21T19:02:46.433Z,22.90
2023-03-21T19:05:15.605Z,22.23
2023-03-21T19:07:43.584Z,22.87
2023-03-21T19:10:18.296Z,20.27
2023-03-21T19:12:46.921Z,22.53
2023-03-21T19:15:18.644Z,21.03
2023-03-21T19:18:26.459Z,19.47
2023-03-21T19:20:35.125Z,19.27
2023-03-21T19:23:03.275Z,18.60
2023-03-21T19:25:31.159Z,19.57
2023-03-21T19:27:58.976Z,18.67
2023-03-21T19:30:28.525Z,19.23
2023-03-21T19:32:56.458Z,20.50
2023-03-21T19:35:25.130Z,19.60
2023-03-21T19:37:52.964Z,20.53
2023-03-21T19:40:21.375Z,18.50
2023-03-21T19:42:49.297Z,20.33
2023-03-21T19:45:17.277Z,19.23
2023-03-21T19:47:46.776Z,19.57
2023-03-21T19:53:02.593Z,20.73
2023-03-21T19:55:30.806Z,21.93
2023-03-21T19:57:59.136Z,20.03
2023-03-21T20:00:27.329Z,19.23
2023-03-21T20:02:56.766Z,19.37
2023-03-21T20:05:25.500Z,18.93
2023-03-21T20:07:55.352Z,20.50
2023-03-21T20:10:23.353Z,21.53
2023-03-21T20:12:51.307Z,21.80
2023-03-21T20:15:21.681Z,20.43
2023-03-21T20:17:50.330Z,22.10
2023-03-21T20:20:20.233Z,22.07
2023-03-21T20:25:40.573Z,22.47
2023-03-21T20:28:24.256Z,23.47
2023-03-21T20:30:56.777Z,21.77
2023-03-21T20:33:25.126Z,22.27
2023-03-21T20:38:47.500Z,22.13
2023-03-21T20:41:15.477Z,22.33
2023-03-21T20:46:31.176Z,24.43
2023-03-21T20:48:59.782Z,24.03
2023-03-21T20:54:17.835Z,24.97
2023-03-21T20:56:46.009Z,25.70
2023-03-21T20:59:20.843Z,26.37
2023-03-21T21:01:51.975Z,27.10
2023-03-21T21:04:20.352Z,27.33
2023-03-21T21:06:49.687Z,27.17
2023-03-21T21:09:17.642Z,28.60
2023-03-21T21:14:35.389Z,28.73
2023-03-21T21:17:21.005Z,28.23
2023-03-21T21:19:51.449Z,30.40
2023-03-21T21:22:20.736Z,30.30
2023-03-21T21:24:48.607Z,31.33
2023-03-21T21:27:16.551Z,31.67
2023-03-21T21:29:47.515Z,31.07
2023-03-21T21:32:16.692Z,30.87
2023-03-21T21:34:44.609Z,30.57
2023-03-21T21:37:12.484Z,33.57
2023-03-21T21:39:41.974Z,31.90
2023-03-21T21:42:09.892Z,33.57
2023-03-21T21:44:39.922Z,35.30
2023-03-21T21:47:09.042Z,35.00
2023-03-21T21:49:37.198Z,36.13
2023-03-21T21:52:05.905Z,36.33
2023-03-21T21:54:35.008Z,38.63
2023-03-21T21:57:05.835Z,39.70
2023-03-21T21:59:33.946Z,44.70
2023-03-21T22:02:02.040Z,40.47
2023-03-21T22:04:30.028Z,41.37
2023-03-21T22:06:58.343Z,38.70
2023-03-21T22:09:26.221Z,42.47
2023-03-21T22:11:55.310Z,40.17
2023-03-21T22:14:24.562Z,40.20
2023-03-21T22:16:52.722Z,41.13
2023-03-21T22:19:20.616Z,40.47
2023-03-21T22:21:48.538Z,42.23
2023-03-21T22:24:17.031Z,39.60
2023-03-21T22:26:45.242Z,40.60
2023-03-21T22:29:13.574Z,41.87
2023-03-21T22:31:43.014Z,41.20
2023-03-21T22:34:10.902Z,40.37
2023-03-21T22:36:38.826Z,39.90
2023-03-21T22:39:06.630Z,39.50
2023-03-21T22:41:34.606Z,39.00
2023-03-21T22:44:02.433Z,42.30
2023-03-21T22:46:30.418Z,45.57
2023-03-21T22:48:59.726Z,44.73
2023-03-21T22:51:27.626Z,40.73
2023-03-21T22:53:55.428Z,44.93
2023-03-21T22:56:23.275Z,40.73
2023-03-21T22:58:51.111Z,38.83
2023-03-21T23:01:18.959Z,39.07
2023-03-21T23:03:46.874Z,42.50
2023-03-21T23:06:16.124Z,44.83
2023-03-21T23:08:44.075Z,39.93
2023-03-21T23:11:12.821Z,42.43
2023-03-21T23:13:42.163Z,37.33
2023-03-21T23:16:10.590Z,39.80
2023-03-21T23:18:38.717Z,41.03
2023-03-21T23:21:13.032Z,35.27
2023-03-21T23:23:43.828Z,36.90
2023-03-21T23:26:12.282Z,48.13
2023-03-21T23:28:40.218Z,42.00
2023-03-21T23:31:09.658Z,76.27
2023-03-21T23:33:37.739Z,34.47
2023-03-21T23:36:06.431Z,31.23
2023-03-21T23:38:34.465Z,36.07
2023-03-21T23:41:07.772Z,28.20
2023-03-21T23:43:36.106Z,26.67
2023-03-21T23:46:04.665Z,29.17
2023-03-21T23:48:32.848Z,29.90
2023-03-21T23:51:00.928Z,29.10
2023-03-21T23:53:28.813Z,29.57
2023-03-21T23:55:58.516Z,25.30
2023-03-21T23:58:29.275Z,25.63
